Main page
METAR-TAF:

METAR-TAF

Airports :

Fa'a'ā International Airport

Tahiti, French Polynesia

latitude: 17-33S, longitude: 149-37W, elevation: 2 m

Current weather observation

The report was made 28 minutes ago, at 19:30 UTC
Wind 5 kt from the Northeast
Temperature 28°C
Humidity 58%
Pressure 1017 hPa
Visibility 10 km or more
Few clouds at a height of 2000 ft

METAR: NTAA 231930Z 05005KT 9999 FEW020 28/19 Q1017 NOSIG

Time: 09:58 (19:58 UTC)

Forecast

The report was made 2 hours and 58 minutes ago, at 17:00 UTC
Forecast valid from 23 at 18 UTC to 24 at 24 UTC
Wind 2 kt from variable directions
Visibility 10 km or more
Few clouds at a height of 2500 ft
Temporary
from 23 at 18 UTC to 23 at 22 UTC
Wind 12 kt from the Northeast

TAF: NTAA 231700Z 2318/2424 VRB02KT 9999 FEW025 TEMPO 2318/2322 05012KT

Weather observations and forecasts of more than 4000 airports (METAR and TAF reports).

The available stations are represented by yellow and red dots on the map.

Hover mouse over dot to see the name of the station.

Then click to see weather observations and forecasts.

To change the map : click on the green buttons with a black cross to zoom in, on the green button with a dash to zoom out, or on the green arrows for adjacent maps.


METAR-TAF: